sensor_id;sensor_type;location;lat;lon;timestamp;temperature;humidity
14192;DHT22;7177;48.572;7.838;2022-10-04T00:07:04;9.10;99.90
14192;DHT22;7177;48.572;7.838;2022-10-04T00:09:57;9.10;99.90
14192;DHT22;7177;48.572;7.838;2022-10-04T00:12:36;9.10;99.90
14192;DHT22;7177;48.572;7.838;2022-10-04T00:17:44;9.20;99.90
14192;DHT22;7177;48.572;7.838;2022-10-04T00:28:47;9.20;99.90
14192;DHT22;7177;48.572;7.838;2022-10-04T00:31:17;9.20;99.90
14192;DHT22;7177;48.572;7.838;2022-10-04T00:33:56;9.20;99.90
14192;DHT22;7177;48.572;7.838;2022-10-04T00:46:58;9.00;99.90
14192;DHT22;7177;48.572;7.838;2022-10-04T00:49:28;9.00;99.90
14192;DHT22;7177;48.572;7.838;2022-10-04T00:52:08;9.00;99.90
14192;DHT22;7177;48.572;7.838;2022-10-04T00:54:40;8.90;99.90
14192;DHT22;7177;48.572;7.838;2022-10-04T00:57:10;8.80;99.90
14192;DHT22;7177;48.572;7.838;2022-10-04T00:59:42;8.80;99.90
14192;DHT22;7177;48.572;7.838;2022-10-04T01:02:21;8.70;99.90
14192;DHT22;7177;48.572;7.838;2022-10-04T01:05:14;8.70;99.90
14192;DHT22;7177;48.572;7.838;2022-10-04T01:07:47;8.70;99.90
14192;DHT22;7177;48.572;7.838;2022-10-04T01:10:20;8.70;99.90
14192;DHT22;7177;48.572;7.838;2022-10-04T01:15:39;8.50;99.90
14192;DHT22;7177;48.572;7.838;2022-10-04T01:18:26;8.50;99.90
14192;DHT22;7177;48.572;7.838;2022-10-04T01:21:38;8.50;99.90
14192;DHT22;7177;48.572;7.838;2022-10-04T01:24:32;8.40;99.90
14192;DHT22;7177;48.572;7.838;2022-10-04T01:26:41;8.40;99.90
14192;DHT22;7177;48.572;7.838;2022-10-04T01:31:47;8.30;99.90
14192;DHT22;7177;48.572;7.838;2022-10-04T01:34:27;8.30;99.90
14192;DHT22;7177;48.572;7.838;2022-10-04T01:36:56;8.40;99.90
14192;DHT22;7177;48.572;7.838;2022-10-04T01:39:24;8.40;99.90
14192;DHT22;7177;48.572;7.838;2022-10-04T01:42:08;8.40;99.90
14192;DHT22;7177;48.572;7.838;2022-10-04T01:44:44;8.40;99.90
14192;DHT22;7177;48.572;7.838;2022-10-04T01:47:18;8.30;99.90
14192;DHT22;7177;48.572;7.838;2022-10-04T01:49:46;8.30;99.90
14192;DHT22;7177;48.572;7.838;2022-10-04T01:52:26;8.30;99.90
14192;DHT22;7177;48.572;7.838;2022-10-04T01:55:02;8.30;99.90
14192;DHT22;7177;48.572;7.838;2022-10-04T01:57:38;8.30;99.90
14192;DHT22;7177;48.572;7.838;2022-10-04T02:00:08;8.20;99.90
14192;DHT22;7177;48.572;7.838;2022-10-04T02:05:11;8.20;99.90
14192;DHT22;7177;48.572;7.838;2022-10-04T02:07:38;8.10;99.90
14192;DHT22;7177;48.572;7.838;2022-10-04T02:10:09;8.10;99.90
14192;DHT22;7177;48.572;7.838;2022-10-04T02:12:36;8.00;99.90
14192;DHT22;7177;48.572;7.838;2022-10-04T02:15:06;8.00;99.90
14192;DHT22;7177;48.572;7.838;2022-10-04T02:17:36;7.90;99.90
14192;DHT22;7177;48.572;7.838;2022-10-04T02:20:10;7.90;99.90
14192;DHT22;7177;48.572;7.838;2022-10-04T02:22:37;7.90;99.90
14192;DHT22;7177;48.572;7.838;2022-10-04T02:25:04;7.80;99.90
14192;DHT22;7177;48.572;7.838;2022-10-04T02:27:31;7.80;99.90
14192;DHT22;7177;48.572;7.838;2022-10-04T02:30:06;7.80;99.90
14192;DHT22;7177;48.572;7.838;2022-10-04T02:32:32;7.80;99.90
14192;DHT22;7177;48.572;7.838;2022-10-04T02:35:17;7.80;99.90
14192;DHT22;7177;48.572;7.838;2022-10-04T02:37:49;7.80;99.90
14192;DHT22;7177;48.572;7.838;2022-10-04T02:40:21;7.80;99.90
14192;DHT22;7177;48.572;7.838;2022-10-04T02:42:59;7.80;99.90
14192;DHT22;7177;48.572;7.838;2022-10-04T02:45:48;7.90;99.90
14192;DHT22;7177;48.572;7.838;2022-10-04T02:48:38;7.90;99.90
14192;DHT22;7177;48.572;7.838;2022-10-04T02:56:23;7.80;99.90
14192;DHT22;7177;48.572;7.838;2022-10-04T02:58:50;7.90;99.90
14192;DHT22;7177;48.572;7.838;2022-10-04T03:01:24;7.90;99.90
14192;DHT22;7177;48.572;7.838;2022-10-04T03:03:52;7.80;99.90
14192;DHT22;7177;48.572;7.838;2022-10-04T03:06:19;7.90;99.90
14192;DHT22;7177;48.572;7.838;2022-10-04T03:11:15;8.00;99.90
14192;DHT22;7177;48.572;7.838;2022-10-04T03:13:47;8.10;99.90
14192;DHT22;7177;48.572;7.838;2022-10-04T03:16:14;8.10;99.90
14192;DHT22;7177;48.572;7.838;2022-10-04T03:18:41;8.10;99.90
14192;DHT22;7177;48.572;7.838;2022-10-04T03:21:09;8.10;99.90
14192;DHT22;7177;48.572;7.838;2022-10-04T03:23:36;8.10;99.90
14192;DHT22;7177;48.572;7.838;2022-10-04T03:26:22;8.10;99.90
14192;DHT22;7177;48.572;7.838;2022-10-04T03:28:49;8.10;99.90
14192;DHT22;7177;48.572;7.838;2022-10-04T03:31:15;8.00;99.90
14192;DHT22;7177;48.572;7.838;2022-10-04T03:33:42;8.00;99.90
14192;DHT22;7177;48.572;7.838;2022-10-04T03:36:12;8.00;99.90
14192;DHT22;7177;48.572;7.838;2022-10-04T03:38:39;7.90;99.90
14192;DHT22;7177;48.572;7.838;2022-10-04T03:41:05;7.90;99.90
14192;DHT22;7177;48.572;7.838;2022-10-04T03:43:32;7.90;99.90
14192;DHT22;7177;48.572;7.838;2022-10-04T03:46:02;7.70;99.90
14192;DHT22;7177;48.572;7.838;2022-10-04T03:48:51;7.70;99.90
14192;DHT22;7177;48.572;7.838;2022-10-04T03:51:24;7.70;99.90
14192;DHT22;7177;48.572;7.838;2022-10-04T03:53:53;7.70;99.90
14192;DHT22;7177;48.572;7.838;2022-10-04T03:56:34;7.70;99.90
14192;DHT22;7177;48.572;7.838;2022-10-04T03:59:03;7.70;99.90
14192;DHT22;7177;48.572;7.838;2022-10-04T04:01:36;7.70;99.90
14192;DHT22;7177;48.572;7.838;2022-10-04T04:09:51;7.70;99.90
14192;DHT22;7177;48.572;7.838;2022-10-04T04:12:28;7.60;99.90
14192;DHT22;7177;48.572;7.838;2022-10-04T04:14:58;8.00;99.90
14192;DHT22;7177;48.572;7.838;2022-10-04T04:20:29;8.40;99.90
14192;DHT22;7177;48.572;7.838;2022-10-04T04:25:28;9.00;99.90
14192;DHT22;7177;48.572;7.838;2022-10-04T04:28:12;9.00;99.90
14192;DHT22;7177;48.572;7.838;2022-10-04T04:30:45;9.10;99.90
14192;DHT22;7177;48.572;7.838;2022-10-04T04:33:20;9.10;99.90
14192;DHT22;7177;48.572;7.838;2022-10-04T04:35:53;8.50;99.90
14192;DHT22;7177;48.572;7.838;2022-10-04T04:38:24;8.50;99.90
14192;DHT22;7177;48.572;7.838;2022-10-04T04:40:51;8.30;99.90
14192;DHT22;7177;48.572;7.838;2022-10-04T04:43:22;8.30;99.90
14192;DHT22;7177;48.572;7.838;2022-10-04T04:45:49;8.20;99.90
14192;DHT22;7177;48.572;7.838;2022-10-04T04:48:17;7.80;99.90
14192;DHT22;7177;48.572;7.838;2022-10-04T04:50:51;7.60;99.90
14192;DHT22;7177;48.572;7.838;2022-10-04T04:53:21;7.40;99.90
14192;DHT22;7177;48.572;7.838;2022-10-04T04:55:57;7.50;99.90
14192;DHT22;7177;48.572;7.838;2022-10-04T04:58:27;7.30;99.90
14192;DHT22;7177;48.572;7.838;2022-10-04T05:00:55;7.30;99.90
14192;DHT22;7177;48.572;7.838;2022-10-04T05:03:22;7.30;99.90
14192;DHT22;7177;48.572;7.838;2022-10-04T05:05:48;7.30;99.90
14192;DHT22;7177;48.572;7.838;2022-10-04T05:13:43;7.40;99.90
14192;DHT22;7177;48.572;7.838;2022-10-04T05:16:22;7.30;99.90
14192;DHT22;7177;48.572;7.838;2022-10-04T05:18:56;7.20;99.90
14192;DHT22;7177;48.572;7.838;2022-10-04T05:21:27;7.20;99.90
14192;DHT22;7177;48.572;7.838;2022-10-04T05:23:55;7.20;99.90
14192;DHT22;7177;48.572;7.838;2022-10-04T05:26:29;7.20;99.90
14192;DHT22;7177;48.572;7.838;2022-10-04T05:28:59;7.20;99.90
14192;DHT22;7177;48.572;7.838;2022-10-04T05:31:49;7.20;99.90
14192;DHT22;7177;48.572;7.838;2022-10-04T05:34:26;7.20;99.90
14192;DHT22;7177;48.572;7.838;2022-10-04T05:42:46;7.10;99.90
14192;DHT22;7177;48.572;7.838;2022-10-04T05:45:29;7.10;99.90
14192;DHT22;7177;48.572;7.838;2022-10-04T05:47:56;7.10;99.90
14192;DHT22;7177;48.572;7.838;2022-10-04T05:50:36;7.20;99.90
14192;DHT22;7177;48.572;7.838;2022-10-04T05:53:30;7.20;99.90
14192;DHT22;7177;48.572;7.838;2022-10-04T05:56:20;7.20;99.90
14192;DHT22;7177;48.572;7.838;2022-10-04T06:07:09;7.40;99.90
14192;DHT22;7177;48.572;7.838;2022-10-04T06:17:51;8.20;99.90
14192;DHT22;7177;48.572;7.838;2022-10-04T06:23:16;7.70;99.90
14192;DHT22;7177;48.572;7.838;2022-10-04T06:25:58;7.60;99.90
14192;DHT22;7177;48.572;7.838;2022-10-04T06:28:36;7.70;99.90
14192;DHT22;7177;48.572;7.838;2022-10-04T06:33:53;7.70;99.90
14192;DHT22;7177;48.572;7.838;2022-10-04T06:36:42;7.60;99.90
14192;DHT22;7177;48.572;7.838;2022-10-04T06:42:12;7.60;99.90
14192;DHT22;7177;48.572;7.838;2022-10-04T06:47:36;7.60;99.90
14192;DHT22;7177;48.572;7.838;2022-10-04T06:50:19;7.80;99.90
14192;DHT22;7177;48.572;7.838;2022-10-04T07:04:00;8.10;99.90
14192;DHT22;7177;48.572;7.838;2022-10-04T07:06:40;8.10;99.90
14192;DHT22;7177;48.572;7.838;2022-10-04T07:09:15;8.10;99.90
14192;DHT22;7177;48.572;7.838;2022-10-04T07:11:48;8.10;99.90
14192;DHT22;7177;48.572;7.838;2022-10-04T07:14:24;8.20;99.90
14192;DHT22;7177;48.572;7.838;2022-10-04T07:16:59;8.20;99.90
14192;DHT22;7177;48.572;7.838;2022-10-04T07:19:41;8.20;99.90
14192;DHT22;7177;48.572;7.838;2022-10-04T07:22:16;8.30;99.90
14192;DHT22;7177;48.572;7.838;2022-10-04T07:30:57;8.40;99.90
14192;DHT22;7177;48.572;7.838;2022-10-04T07:33:27;8.40;99.90
14192;DHT22;7177;48.572;7.838;2022-10-04T07:36:17;8.40;99.90
14192;DHT22;7177;48.572;7.838;2022-10-04T07:38:49;8.40;99.90
14192;DHT22;7177;48.572;7.838;2022-10-04T07:41:36;8.40;99.90
14192;DHT22;7177;48.572;7.838;2022-10-04T07:47:07;8.60;99.90
14192;DHT22;7177;48.572;7.838;2022-10-04T07:49:38;8.50;99.90
14192;DHT22;7177;48.572;7.838;2022-10-04T08:00:23;8.50;99.90
14192;DHT22;7177;48.572;7.838;2022-10-04T08:06:13;8.60;99.90
14192;DHT22;7177;48.572;7.838;2022-10-04T08:09:13;8.70;99.90
14192;DHT22;7177;48.572;7.838;2022-10-04T08:12:00;8.80;99.90
14192;DHT22;7177;48.572;7.838;2022-10-04T08:14:45;8.90;99.90
14192;DHT22;7177;48.572;7.838;2022-10-04T08:17:23;9.10;99.90
14192;DHT22;7177;48.572;7.838;2022-10-04T08:20:02;9.20;99.90
14192;DHT22;7177;48.572;7.838;2022-10-04T08:38:00;9.80;99.90
14192;DHT22;7177;48.572;7.838;2022-10-04T09:09:09;10.30;99.90
14192;DHT22;7177;48.572;7.838;2022-10-04T09:14:29;10.50;99.90
14192;DHT22;7177;48.572;7.838;2022-10-04T09:17:19;10.60;99.90
14192;DHT22;7177;48.572;7.838;2022-10-04T09:19:55;10.80;99.90
14192;DHT22;7177;48.572;7.838;2022-10-04T09:22:45;10.80;99.90
14192;DHT22;7177;48.572;7.838;2022-10-04T09:25:30;11.00;99.90
14192;DHT22;7177;48.572;7.838;2022-10-04T09:33:39;11.40;99.90
14192;DHT22;7177;48.572;7.838;2022-10-04T09:45:24;11.40;99.90
14192;DHT22;7177;48.572;7.838;2022-10-04T10:01:34;12.20;99.90
14192;DHT22;7177;48.572;7.838;2022-10-04T10:07:08;12.90;99.90
14192;DHT22;7177;48.572;7.838;2022-10-04T10:10:00;13.10;99.90
14192;DHT22;7177;48.572;7.838;2022-10-04T10:13:05;13.40;99.90
14192;DHT22;7177;48.572;7.838;2022-10-04T10:16:03;13.80;99.90
14192;DHT22;7177;48.572;7.838;2022-10-04T10:19:03;14.20;99.90
14192;DHT22;7177;48.572;7.838;2022-10-04T10:24:20;15.40;99.90
14192;DHT22;7177;48.572;7.838;2022-10-04T10:32:38;16.90;99.90
14192;DHT22;7177;48.572;7.838;2022-10-04T10:38:02;17.20;99.90
14192;DHT22;7177;48.572;7.838;2022-10-04T10:43:43;17.10;99.90
14192;DHT22;7177;48.572;7.838;2022-10-04T10:46:38;17.50;99.90
14192;DHT22;7177;48.572;7.838;2022-10-04T10:49:38;17.80;99.90
14192;DHT22;7177;48.572;7.838;2022-10-04T11:03:32;19.30;99.90
14192;DHT22;7177;48.572;7.838;2022-10-04T11:06:06;20.00;99.90
14192;DHT22;7177;48.572;7.838;2022-10-04T11:18:22;21.20;99.90
14192;DHT22;7177;48.572;7.838;2022-10-04T11:23:23;21.20;99.90
14192;DHT22;7177;48.572;7.838;2022-10-04T11:28:35;21.10;99.90
14192;DHT22;7177;48.572;7.838;2022-10-04T11:31:31;21.00;99.90
14192;DHT22;7177;48.572;7.838;2022-10-04T11:39:35;21.00;99.90
14192;DHT22;7177;48.572;7.838;2022-10-04T11:42:37;21.40;99.90
14192;DHT22;7177;48.572;7.838;2022-10-04T11:48:12;22.30;99.90
14192;DHT22;7177;48.572;7.838;2022-10-04T11:51:02;23.00;99.90
14192;DHT22;7177;48.572;7.838;2022-10-04T11:53:43;23.30;99.90
14192;DHT22;7177;48.572;7.838;2022-10-04T11:59:23;23.30;99.90
14192;DHT22;7177;48.572;7.838;2022-10-04T12:07:31;23.90;99.90
14192;DHT22;7177;48.572;7.838;2022-10-04T12:23:22;25.30;99.90
14192;DHT22;7177;48.572;7.838;2022-10-04T12:31:10;25.10;99.90
14192;DHT22;7177;48.572;7.838;2022-10-04T12:33:48;25.20;99.90
14192;DHT22;7177;48.572;7.838;2022-10-04T12:36:41;25.30;99.90
14192;DHT22;7177;48.572;7.838;2022-10-04T12:42:05;25.30;99.90
14192;DHT22;7177;48.572;7.838;2022-10-04T12:44:57;25.10;99.90
14192;DHT22;7177;48.572;7.838;2022-10-04T12:47:36;25.00;99.90
14192;DHT22;7177;48.572;7.838;2022-10-04T12:50:30;25.20;99.50
14192;DHT22;7177;48.572;7.838;2022-10-04T12:58:59;25.80;97.70
14192;DHT22;7177;48.572;7.838;2022-10-04T13:01:49;24.80;99.20
14192;DHT22;7177;48.572;7.838;2022-10-04T13:04:25;24.20;99.90
14192;DHT22;7177;48.572;7.838;2022-10-04T13:10:15;24.60;99.90
14192;DHT22;7177;48.572;7.838;2022-10-04T13:15:24;25.80;97.50
14192;DHT22;7177;48.572;7.838;2022-10-04T13:21:04;25.80;97.00
14192;DHT22;7177;48.572;7.838;2022-10-04T13:26:45;25.40;96.30
14192;DHT22;7177;48.572;7.838;2022-10-04T13:29:32;25.10;97.40
14192;DHT22;7177;48.572;7.838;2022-10-04T13:32:17;25.30;96.30
14192;DHT22;7177;48.572;7.838;2022-10-04T13:34:58;25.40;96.50
14192;DHT22;7177;48.572;7.838;2022-10-04T13:41:00;24.90;97.60
14192;DHT22;7177;48.572;7.838;2022-10-04T13:43:26;25.00;97.20
14192;DHT22;7177;48.572;7.838;2022-10-04T13:46:11;25.20;97.40
14192;DHT22;7177;48.572;7.838;2022-10-04T13:54:29;25.30;97.50
14192;DHT22;7177;48.572;7.838;2022-10-04T13:57:26;25.60;96.10
14192;DHT22;7177;48.572;7.838;2022-10-04T14:05:32;25.00;97.90
14192;DHT22;7177;48.572;7.838;2022-10-04T14:08:28;25.10;96.60
14192;DHT22;7177;48.572;7.838;2022-10-04T14:51:10;24.50;98.60
14192;DHT22;7177;48.572;7.838;2022-10-04T14:53:48;23.90;99.70
14192;DHT22;7177;48.572;7.838;2022-10-04T14:56:24;23.60;99.90
14192;DHT22;7177;48.572;7.838;2022-10-04T15:01:37;23.90;99.90
14192;DHT22;7177;48.572;7.838;2022-10-04T15:04:27;24.10;99.90
14192;DHT22;7177;48.572;7.838;2022-10-04T15:07:19;24.30;99.90
14192;DHT22;7177;48.572;7.838;2022-10-04T15:10:09;24.50;99.90
14192;DHT22;7177;48.572;7.838;2022-10-04T15:23:42;24.40;99.90
14192;DHT22;7177;48.572;7.838;2022-10-04T15:34:08;24.50;99.90
14192;DHT22;7177;48.572;7.838;2022-10-04T15:45:04;23.50;99.90
14192;DHT22;7177;48.572;7.838;2022-10-04T16:04:43;21.60;99.90
14192;DHT22;7177;48.572;7.838;2022-10-04T16:07:21;21.30;99.90
14192;DHT22;7177;48.572;7.838;2022-10-04T16:12:51;20.90;99.90
14192;DHT22;7177;48.572;7.838;2022-10-04T16:18:13;20.70;99.90
14192;DHT22;7177;48.572;7.838;2022-10-04T16:31:58;20.20;99.90
14192;DHT22;7177;48.572;7.838;2022-10-04T16:34:55;20.10;99.90
14192;DHT22;7177;48.572;7.838;2022-10-04T16:37:38;20.00;99.90
14192;DHT22;7177;48.572;7.838;2022-10-04T16:40:34;19.90;99.90
14192;DHT22;7177;48.572;7.838;2022-10-04T16:43:25;19.80;99.90
14192;DHT22;7177;48.572;7.838;2022-10-04T16:46:16;19.70;99.90
14192;DHT22;7177;48.572;7.838;2022-10-04T17:07:55;18.50;99.90
14192;DHT22;7177;48.572;7.838;2022-10-04T17:10:44;18.30;99.90
14192;DHT22;7177;48.572;7.838;2022-10-04T17:26:58;17.60;99.90
14192;DHT22;7177;48.572;7.838;2022-10-04T17:38:10;17.10;99.90
14192;DHT22;7177;48.572;7.838;2022-10-04T17:41:00;16.90;99.90
14192;DHT22;7177;48.572;7.838;2022-10-04T17:43:40;16.90;99.90
14192;DHT22;7177;48.572;7.838;2022-10-04T17:49:15;16.70;99.90
14192;DHT22;7177;48.572;7.838;2022-10-04T17:52:22;16.60;99.90
14192;DHT22;7177;48.572;7.838;2022-10-04T17:55:28;16.40;99.90
14192;DHT22;7177;48.572;7.838;2022-10-04T17:58:13;16.40;99.90
14192;DHT22;7177;48.572;7.838;2022-10-04T18:00:54;16.40;99.90
14192;DHT22;7177;48.572;7.838;2022-10-04T18:03:40;16.30;99.90
14192;DHT22;7177;48.572;7.838;2022-10-04T18:08:59;16.20;99.90
14192;DHT22;7177;48.572;7.838;2022-10-04T18:11:43;16.00;99.90
14192;DHT22;7177;48.572;7.838;2022-10-04T18:16:58;15.90;99.90
14192;DHT22;7177;48.572;7.838;2022-10-04T18:19:47;15.80;99.90
14192;DHT22;7177;48.572;7.838;2022-10-04T18:22:17;15.80;99.90
14192;DHT22;7177;48.572;7.838;2022-10-04T18:25:02;15.80;99.90
14192;DHT22;7177;48.572;7.838;2022-10-04T18:27:47;15.70;99.90
14192;DHT22;7177;48.572;7.838;2022-10-04T18:30:16;15.60;99.90
14192;DHT22;7177;48.572;7.838;2022-10-04T18:33:04;15.50;99.90
14192;DHT22;7177;48.572;7.838;2022-10-04T18:35:53;15.50;99.90
14192;DHT22;7177;48.572;7.838;2022-10-04T18:38:27;15.50;99.90
14192;DHT22;7177;48.572;7.838;2022-10-04T18:43:48;15.30;99.90
14192;DHT22;7177;48.572;7.838;2022-10-04T18:46:19;15.30;99.90
14192;DHT22;7177;48.572;7.838;2022-10-04T18:48:58;15.20;99.90
14192;DHT22;7177;48.572;7.838;2022-10-04T19:00:08;14.90;99.90
14192;DHT22;7177;48.572;7.838;2022-10-04T19:06:08;14.80;99.90
14192;DHT22;7177;48.572;7.838;2022-10-04T19:08:58;14.80;99.90
14192;DHT22;7177;48.572;7.838;2022-10-04T19:21:58;14.40;99.90
14192;DHT22;7177;48.572;7.838;2022-10-04T19:24:48;14.30;99.90
14192;DHT22;7177;48.572;7.838;2022-10-04T19:27:37;14.30;99.90
14192;DHT22;7177;48.572;7.838;2022-10-04T19:30:09;14.20;99.90
14192;DHT22;7177;48.572;7.838;2022-10-04T19:40:44;14.10;99.90
14192;DHT22;7177;48.572;7.838;2022-10-04T19:43:17;14.00;99.90
14192;DHT22;7177;48.572;7.838;2022-10-04T19:46:04;14.00;99.90
14192;DHT22;7177;48.572;7.838;2022-10-04T19:48:50;13.80;99.90
14192;DHT22;7177;48.572;7.838;2022-10-04T19:54:10;13.60;99.90
14192;DHT22;7177;48.572;7.838;2022-10-04T19:56:47;13.60;99.90
14192;DHT22;7177;48.572;7.838;2022-10-04T19:59:31;13.50;99.90
14192;DHT22;7177;48.572;7.838;2022-10-04T20:02:00;13.50;99.90
14192;DHT22;7177;48.572;7.838;2022-10-04T20:04:26;13.20;99.90
14192;DHT22;7177;48.572;7.838;2022-10-04T20:07:15;13.10;99.90
14192;DHT22;7177;48.572;7.838;2022-10-04T20:12:33;13.10;99.90
14192;DHT22;7177;48.572;7.838;2022-10-04T20:15:12;13.10;99.90
14192;DHT22;7177;48.572;7.838;2022-10-04T20:17:42;13.10;99.90
14192;DHT22;7177;48.572;7.838;2022-10-04T20:20:09;13.00;99.90
14192;DHT22;7177;48.572;7.838;2022-10-04T20:30:56;13.10;99.90
14192;DHT22;7177;48.572;7.838;2022-10-04T20:36:02;13.00;99.90
14192;DHT22;7177;48.572;7.838;2022-10-04T20:43:56;13.00;99.90
14192;DHT22;7177;48.572;7.838;2022-10-04T20:46:29;13.00;99.90
14192;DHT22;7177;48.572;7.838;2022-10-04T20:48:57;13.00;99.90
14192;DHT22;7177;48.572;7.838;2022-10-04T20:51:25;12.90;99.90
14192;DHT22;7177;48.572;7.838;2022-10-04T20:53:54;12.90;99.90
14192;DHT22;7177;48.572;7.838;2022-10-04T20:56:23;12.80;99.90
14192;DHT22;7177;48.572;7.838;2022-10-04T20:58:54;12.70;99.90
14192;DHT22;7177;48.572;7.838;2022-10-04T21:01:28;12.70;99.90
14192;DHT22;7177;48.572;7.838;2022-10-04T21:07:16;12.60;99.90
14192;DHT22;7177;48.572;7.838;2022-10-04T21:09:42;12.60;99.90
14192;DHT22;7177;48.572;7.838;2022-10-04T21:15:05;12.50;99.90
14192;DHT22;7177;48.572;7.838;2022-10-04T21:19:57;12.40;99.90
14192;DHT22;7177;48.572;7.838;2022-10-04T21:24:55;12.40;99.90
14192;DHT22;7177;48.572;7.838;2022-10-04T21:29:55;12.20;99.90
14192;DHT22;7177;48.572;7.838;2022-10-04T21:32:21;12.10;99.90
14192;DHT22;7177;48.572;7.838;2022-10-04T21:34:47;12.10;99.90
14192;DHT22;7177;48.572;7.838;2022-10-04T21:37:13;12.10;99.90
14192;DHT22;7177;48.572;7.838;2022-10-04T21:39:38;12.10;99.90
14192;DHT22;7177;48.572;7.838;2022-10-04T21:42:04;12.10;99.90
14192;DHT22;7177;48.572;7.838;2022-10-04T21:44:30;12.10;99.90
14192;DHT22;7177;48.572;7.838;2022-10-04T21:46:55;12.10;99.90
14192;DHT22;7177;48.572;7.838;2022-10-04T21:49:21;12.10;99.90
14192;DHT22;7177;48.572;7.838;2022-10-04T21:51:46;12.00;99.90
14192;DHT22;7177;48.572;7.838;2022-10-04T21:54:12;11.90;99.90
14192;DHT22;7177;48.572;7.838;2022-10-04T21:56:37;11.70;99.90
14192;DHT22;7177;48.572;7.838;2022-10-04T21:59:03;11.40;99.90
14192;DHT22;7177;48.572;7.838;2022-10-04T22:01:29;11.20;99.90
14192;DHT22;7177;48.572;7.838;2022-10-04T22:03:55;11.00;99.90
14192;DHT22;7177;48.572;7.838;2022-10-04T22:06:21;10.90;99.90
14192;DHT22;7177;48.572;7.838;2022-10-04T22:08:47;10.90;99.90
14192;DHT22;7177;48.572;7.838;2022-10-04T22:11:12;11.00;99.90
14192;DHT22;7177;48.572;7.838;2022-10-04T22:13:38;11.00;99.90
14192;DHT22;7177;48.572;7.838;2022-10-04T22:16:04;11.10;99.90
14192;DHT22;7177;48.572;7.838;2022-10-04T22:18:31;11.10;99.90
14192;DHT22;7177;48.572;7.838;2022-10-04T22:20:57;11.10;99.90
14192;DHT22;7177;48.572;7.838;2022-10-04T22:23:26;11.10;99.90
14192;DHT22;7177;48.572;7.838;2022-10-04T22:25:53;11.20;99.90
14192;DHT22;7177;48.572;7.838;2022-10-04T22:28:27;11.20;99.90
14192;DHT22;7177;48.572;7.838;2022-10-04T22:30:52;11.30;99.90
14192;DHT22;7177;48.572;7.838;2022-10-04T22:33:36;11.30;99.90
14192;DHT22;7177;48.572;7.838;2022-10-04T22:36:14;11.30;99.90
14192;DHT22;7177;48.572;7.838;2022-10-04T22:39:00;11.30;99.90
14192;DHT22;7177;48.572;7.838;2022-10-04T22:41:29;11.30;99.90
14192;DHT22;7177;48.572;7.838;2022-10-04T22:43:57;11.30;99.90
14192;DHT22;7177;48.572;7.838;2022-10-04T22:46:29;11.20;99.90
14192;DHT22;7177;48.572;7.838;2022-10-04T22:48:56;11.20;99.90
14192;DHT22;7177;48.572;7.838;2022-10-04T22:51:22;11.20;99.90
14192;DHT22;7177;48.572;7.838;2022-10-04T22:53:47;11.10;99.90
14192;DHT22;7177;48.572;7.838;2022-10-04T22:56:13;11.10;99.90
14192;DHT22;7177;48.572;7.838;2022-10-04T22:58:40;11.10;99.90
14192;DHT22;7177;48.572;7.838;2022-10-04T23:01:14;11.10;99.90
14192;DHT22;7177;48.572;7.838;2022-10-04T23:03:44;11.10;99.90
14192;DHT22;7177;48.572;7.838;2022-10-04T23:06:10;11.10;99.90
14192;DHT22;7177;48.572;7.838;2022-10-04T23:08:39;11.10;99.90
14192;DHT22;7177;48.572;7.838;2022-10-04T23:11:06;11.10;99.90
14192;DHT22;7177;48.572;7.838;2022-10-04T23:13:31;11.00;99.90
14192;DHT22;7177;48.572;7.838;2022-10-04T23:15:58;11.10;99.90
14192;DHT22;7177;48.572;7.838;2022-10-04T23:18:26;11.00;99.90
14192;DHT22;7177;48.572;7.838;2022-10-04T23:20:57;11.00;99.90
14192;DHT22;7177;48.572;7.838;2022-10-04T23:23:26;11.10;99.90
14192;DHT22;7177;48.572;7.838;2022-10-04T23:25:53;11.10;99.90
14192;DHT22;7177;48.572;7.838;2022-10-04T23:28:18;11.10;99.90
14192;DHT22;7177;48.572;7.838;2022-10-04T23:31:03;11.10;99.90
14192;DHT22;7177;48.572;7.838;2022-10-04T23:33:30;11.10;99.90
14192;DHT22;7177;48.572;7.838;2022-10-04T23:35:55;11.10;99.90
14192;DHT22;7177;48.572;7.838;2022-10-04T23:38:22;11.10;99.90
14192;DHT22;7177;48.572;7.838;2022-10-04T23:40:49;11.10;99.90
14192;DHT22;7177;48.572;7.838;2022-10-04T23:43:19;11.10;99.90
14192;DHT22;7177;48.572;7.838;2022-10-04T23:45:45;11.10;99.90
14192;DHT22;7177;48.572;7.838;2022-10-04T23:48:19;11.10;99.90
14192;DHT22;7177;48.572;7.838;2022-10-04T23:50:45;11.10;99.90
14192;DHT22;7177;48.572;7.838;2022-10-04T23:53:32;11.10;99.90
14192;DHT22;7177;48.572;7.838;2022-10-04T23:56:02;11.00;99.90
14192;DHT22;7177;48.572;7.838;2022-10-04T23:58:33;11.00;99.90
